createdAt,value
2024-01-16T00:00:58.450Z,1658.00
2024-01-16T00:01:58.410Z,1656.00
2024-01-16T00:02:58.342Z,1655.00
2024-01-16T00:03:58.360Z,1652.00
2024-01-16T00:04:58.331Z,1650.00
2024-01-16T00:05:58.445Z,1652.00
2024-01-16T00:06:58.376Z,1654.00
2024-01-16T00:07:58.292Z,1656.00
2024-01-16T00:08:58.293Z,1654.00
2024-01-16T00:09:58.288Z,1653.00
2024-01-16T00:10:58.260Z,1650.00
2024-01-16T00:11:58.237Z,1652.00
2024-01-16T00:12:58.232Z,1650.00
2024-01-16T00:13:58.213Z,1647.00
2024-01-16T00:14:58.222Z,1648.00
2024-01-16T00:15:58.207Z,1643.00
2024-01-16T00:16:58.183Z,1641.00
2024-01-16T00:17:58.257Z,1642.00
2024-01-16T00:18:58.197Z,1643.00
2024-01-16T00:19:58.160Z,1646.00
2024-01-16T00:20:58.149Z,1647.00
2024-01-16T00:21:58.145Z,1647.00
2024-01-16T00:22:58.122Z,1643.00
2024-01-16T00:23:58.118Z,1641.00
2024-01-16T00:24:58.115Z,1639.00
2024-01-16T00:25:58.132Z,1639.00
2024-01-16T00:26:58.068Z,1640.00
2024-01-16T00:27:58.080Z,1638.00
2024-01-16T00:28:58.067Z,1636.00
2024-01-16T00:29:58.034Z,1635.00
2024-01-16T00:30:58.037Z,1634.00
2024-01-16T00:31:58.016Z,1638.00
2024-01-16T00:32:58.105Z,1635.00
2024-01-16T00:33:58.126Z,1634.00
2024-01-16T00:34:57.996Z,1633.00
2024-01-16T00:35:58.019Z,1635.00
2024-01-16T00:36:57.983Z,1634.00
2024-01-16T00:37:57.975Z,1635.00
2024-01-16T00:38:57.964Z,1635.00
2024-01-16T00:39:57.950Z,1633.00
2024-01-16T00:40:57.941Z,1631.00
2024-01-16T00:41:57.942Z,1631.00
2024-01-16T00:42:57.918Z,1630.00
2024-01-16T00:43:57.914Z,1623.00
2024-01-16T00:44:57.903Z,1619.00
2024-01-16T00:45:57.955Z,1619.00
2024-01-16T00:46:57.881Z,1616.00
2024-01-16T00:47:58.088Z,1617.00
2024-01-16T00:48:57.925Z,1624.00
2024-01-16T00:49:57.867Z,1620.00
2024-01-16T00:50:57.848Z,1617.00
2024-01-16T00:51:57.830Z,1617.00
2024-01-16T00:52:57.817Z,1622.00
2024-01-16T00:53:57.821Z,1622.00
2024-01-16T00:54:57.809Z,1625.00
2024-01-16T00:55:57.949Z,1626.00
2024-01-16T00:56:57.821Z,1627.00
2024-01-16T00:57:57.808Z,1626.00
2024-01-16T00:58:57.815Z,1621.00
2024-01-16T00:59:57.795Z,1619.00
2024-01-16T01:00:57.805Z,1617.00
2024-01-16T01:01:57.787Z,1617.00
2024-01-16T01:02:57.781Z,1615.00
2024-01-16T01:03:57.961Z,1613.00
2024-01-16T01:04:57.769Z,1611.00
2024-01-16T01:05:57.838Z,1611.00
2024-01-16T01:06:57.723Z,1608.00
2024-01-16T01:07:57.716Z,1608.00
2024-01-16T01:08:57.697Z,1607.00
2024-01-16T01:09:57.674Z,1609.00
2024-01-16T01:10:57.701Z,1606.00
2024-01-16T01:11:57.664Z,1608.00
2024-01-16T01:12:57.655Z,1607.00
2024-01-16T01:13:57.664Z,1604.00
2024-01-16T01:14:57.721Z,1605.00
2024-01-16T01:15:57.647Z,1601.00
2024-01-16T01:16:57.618Z,1601.00
2024-01-16T01:17:57.734Z,1600.00
2024-01-16T01:18:57.665Z,1600.00
2024-01-16T01:19:57.597Z,1597.00
2024-01-16T01:20:57.632Z,1591.00
2024-01-16T01:21:57.591Z,1593.00
2024-01-16T01:22:57.556Z,1592.00
2024-01-16T01:23:57.605Z,1594.00
2024-01-16T01:24:57.534Z,1591.00
2024-01-16T01:25:57.538Z,1586.00
2024-01-16T01:26:57.508Z,1585.00
2024-01-16T01:27:57.487Z,1582.00
2024-01-16T01:28:57.473Z,1585.00
2024-01-16T01:29:57.469Z,1585.00
2024-01-16T01:30:57.500Z,1585.00
2024-01-16T01:31:57.471Z,1585.00
2024-01-16T01:32:57.518Z,1587.00
2024-01-16T01:33:57.500Z,1585.00
2024-01-16T01:34:57.401Z,1583.00
2024-01-16T01:35:57.403Z,1581.00
2024-01-16T01:36:57.373Z,1583.00
2024-01-16T01:37:57.369Z,1581.00
2024-01-16T01:38:57.343Z,1579.00
2024-01-16T01:39:57.342Z,1581.00
2024-01-16T01:40:57.317Z,1583.00
2024-01-16T01:41:57.365Z,1582.00
2024-01-16T01:42:57.292Z,1580.00
2024-01-16T01:43:57.283Z,1574.00
2024-01-16T01:44:57.314Z,1577.00
2024-01-16T01:45:57.271Z,1577.00
2024-01-16T01:46:57.253Z,1576.00
2024-01-16T01:47:57.292Z,1576.00
2024-01-16T01:48:57.286Z,1576.00
2024-01-16T01:49:57.197Z,1575.00
2024-01-16T01:50:57.180Z,1573.00
2024-01-16T01:51:57.173Z,1572.00
2024-01-16T01:52:57.162Z,1571.00
2024-01-16T01:53:57.144Z,1567.00
2024-01-16T01:54:57.135Z,1567.00
2024-01-16T01:55:57.151Z,1562.00
2024-01-16T01:56:57.117Z,1560.00
2024-01-16T01:57:57.106Z,1560.00
2024-01-16T01:58:57.086Z,1558.00
2024-01-16T01:59:57.081Z,1557.00
2024-01-16T02:00:57.090Z,1557.00
2024-01-16T02:01:57.053Z,1555.00
2024-01-16T02:02:57.115Z,1555.00
2024-01-16T02:03:57.031Z,1559.00
2024-01-16T02:04:57.052Z,1558.00
2024-01-16T02:05:57.103Z,1556.00
2024-01-16T02:06:56.993Z,1557.00
2024-01-16T02:07:56.992Z,1559.00
2024-01-16T02:08:56.972Z,1558.00
2024-01-16T02:09:56.960Z,1558.00
2024-01-16T02:10:56.958Z,1558.00
2024-01-16T02:11:56.965Z,1556.00
2024-01-16T02:12:56.930Z,1555.00
2024-01-16T02:13:56.928Z,1550.00
2024-01-16T02:14:56.921Z,1551.00
2024-01-16T02:15:56.899Z,1550.00
2024-01-16T02:16:56.890Z,1548.00
2024-01-16T02:17:56.974Z,1549.00
2024-01-16T02:18:56.895Z,1548.00
2024-01-16T02:19:56.888Z,1549.00
2024-01-16T02:20:56.837Z,1550.00
2024-01-16T02:21:56.833Z,1549.00
2024-01-16T02:22:56.820Z,1550.00
2024-01-16T02:23:56.813Z,1551.00
2024-01-16T02:24:56.797Z,1551.00
2024-01-16T02:25:56.769Z,1551.00
2024-01-16T02:26:56.798Z,1552.00
2024-01-16T02:27:56.756Z,1550.00
2024-01-16T02:28:56.735Z,1546.00
2024-01-16T02:29:56.731Z,1544.00
2024-01-16T02:30:56.780Z,1542.00
2024-01-16T02:31:56.696Z,1544.00
2024-01-16T02:32:56.753Z,1544.00
2024-01-16T02:33:56.703Z,1541.00
2024-01-16T02:34:56.657Z,1543.00
2024-01-16T02:35:56.656Z,1544.00
2024-01-16T02:36:56.661Z,1541.00
2024-01-16T02:37:56.630Z,1539.00
2024-01-16T02:38:56.668Z,1537.00
2024-01-16T02:39:56.612Z,1538.00
2024-01-16T02:40:56.611Z,1535.00
2024-01-16T02:41:56.593Z,1533.00
2024-01-16T02:42:56.578Z,1534.00
2024-01-16T02:43:56.566Z,1532.00
2024-01-16T02:44:56.605Z,1529.00
2024-01-16T02:45:56.533Z,1527.00
2024-01-16T02:46:56.535Z,1527.00
2024-01-16T02:47:56.639Z,1526.00
2024-01-16T02:48:56.555Z,1523.00
2024-01-16T02:49:56.487Z,1525.00
2024-01-16T02:50:56.535Z,1526.00
2024-01-16T02:51:56.473Z,1522.00
2024-01-16T02:52:56.451Z,1522.00
2024-01-16T02:53:56.446Z,1520.00
2024-01-16T02:54:56.435Z,1521.00
2024-01-16T02:55:56.419Z,1524.00
2024-01-16T02:56:56.451Z,1525.00
2024-01-16T02:57:56.411Z,1523.00
2024-01-16T02:58:56.396Z,1526.00
2024-01-16T02:59:56.378Z,1524.00
2024-01-16T03:00:56.420Z,1524.00
2024-01-16T03:01:56.598Z,1519.00
2024-01-16T03:02:56.415Z,1517.00
2024-01-16T03:03:56.336Z,1511.00
2024-01-16T03:04:56.324Z,1510.00
2024-01-16T03:05:56.376Z,1511.00
2024-01-16T03:06:56.416Z,1512.00
2024-01-16T03:07:56.289Z,1513.00
2024-01-16T03:08:56.320Z,1513.00
2024-01-16T03:09:56.258Z,1515.00
2024-01-16T03:10:56.243Z,1515.00
2024-01-16T03:11:56.286Z,1508.00
2024-01-16T03:12:56.224Z,1505.00
2024-01-16T03:13:56.227Z,1503.00
2024-01-16T03:14:56.217Z,1502.00
2024-01-16T03:15:56.220Z,1502.00
2024-01-16T03:16:56.186Z,1500.00
2024-01-16T03:17:56.294Z,1497.00
2024-01-16T03:18:56.304Z,1494.00
2024-01-16T03:19:56.182Z,1490.00
2024-01-16T03:20:56.253Z,1488.00
2024-01-16T03:21:56.174Z,1490.00
2024-01-16T03:22:56.153Z,1490.00
2024-01-16T03:23:56.244Z,1490.00
2024-01-16T03:24:56.147Z,1491.00
2024-01-16T03:25:56.139Z,1488.00
2024-01-16T03:26:56.178Z,1489.00
2024-01-16T03:27:56.118Z,1494.00
2024-01-16T03:28:56.106Z,1496.00
2024-01-16T03:29:56.129Z,1497.00
2024-01-16T03:30:56.416Z,1497.00
2024-01-16T03:31:56.098Z,1495.00
2024-01-16T03:32:56.117Z,1494.00
2024-01-16T03:33:56.088Z,1490.00
2024-01-16T03:34:56.034Z,1491.00
2024-01-16T03:35:56.073Z,1491.00
2024-01-16T03:36:56.005Z,1489.00
2024-01-16T03:37:55.989Z,1486.00
2024-01-16T03:38:56.034Z,1485.00
2024-01-16T03:39:56.004Z,1484.00
2024-01-16T03:40:55.965Z,1484.00
2024-01-16T03:41:56.036Z,1485.00
2024-01-16T03:42:55.972Z,1487.00
2024-01-16T03:43:55.977Z,1488.00
2024-01-16T03:44:55.972Z,1490.00
2024-01-16T03:45:55.934Z,1491.00
2024-01-16T03:46:55.932Z,1491.00
2024-01-16T03:47:56.175Z,1489.00
2024-01-16T03:48:56.032Z,1490.00
2024-01-16T03:49:55.904Z,1487.00
2024-01-16T03:50:55.925Z,1484.00
2024-01-16T03:51:55.827Z,1486.00
2024-01-16T03:52:55.902Z,1487.00
2024-01-16T03:53:55.834Z,1488.00
2024-01-16T03:54:55.811Z,1489.00
2024-01-16T03:55:55.786Z,1489.00
2024-01-16T03:56:55.854Z,1487.00
2024-01-16T03:57:55.774Z,1484.00
2024-01-16T03:58:55.765Z,1482.00
2024-01-16T03:59:55.771Z,1479.00
2024-01-16T04:00:55.770Z,1475.00
2024-01-16T04:01:55.721Z,1475.00
2024-01-16T04:02:55.776Z,1476.00
2024-01-16T04:03:55.824Z,1476.00
2024-01-16T04:04:55.722Z,1476.00
2024-01-16T04:05:55.764Z,1472.00
2024-01-16T04:06:55.683Z,1470.00
2024-01-16T04:07:55.672Z,1472.00
2024-01-16T04:08:55.695Z,1472.00
2024-01-16T04:09:55.645Z,1468.00
2024-01-16T04:10:55.639Z,1464.00
2024-01-16T04:11:55.646Z,1464.00
2024-01-16T04:12:55.633Z,1462.00
2024-01-16T04:13:55.606Z,1460.00
2024-01-16T04:14:55.602Z,1461.00
2024-01-16T04:15:55.598Z,1465.00
2024-01-16T04:16:55.586Z,1463.00
2024-01-16T04:17:55.585Z,1463.00
2024-01-16T04:18:55.683Z,1464.00
2024-01-16T04:19:55.570Z,1464.00
2024-01-16T04:20:55.611Z,1463.00
2024-01-16T04:21:55.566Z,1460.00
2024-01-16T04:22:55.536Z,1457.00
2024-01-16T04:23:55.587Z,1455.00
2024-01-16T04:24:55.521Z,1450.00
2024-01-16T04:25:55.531Z,1449.00
2024-01-16T04:27:02.792Z,1421.00
2024-01-16T04:28:03.507Z,1430.00
2024-01-16T04:29:02.784Z,1434.00
2024-01-16T04:30:02.788Z,1437.00
2024-01-16T04:31:09.992Z,1413.00
2024-01-16T04:32:10.099Z,1419.00
2024-01-16T04:33:10.102Z,1423.00
2024-01-16T04:34:10.090Z,1425.00
2024-01-16T04:35:10.133Z,1425.00
2024-01-16T04:36:10.038Z,1426.00
2024-01-16T04:37:10.039Z,1429.00
2024-01-16T04:38:10.091Z,1429.00
2024-01-16T04:39:10.073Z,1431.00
2024-01-16T04:40:10.102Z,1428.00
2024-01-16T04:41:10.081Z,1427.00
2024-01-16T04:42:10.079Z,1425.00
2024-01-16T04:43:10.087Z,1424.00
2024-01-16T04:44:10.132Z,1422.00
2024-01-16T04:45:10.105Z,1421.00
2024-01-16T04:46:10.114Z,1422.00
2024-01-16T04:47:10.175Z,1424.00
2024-01-16T04:48:10.301Z,1424.00
2024-01-16T04:49:10.193Z,1424.00
2024-01-16T04:50:10.204Z,1421.00
2024-01-16T04:51:10.173Z,1419.00
2024-01-16T04:52:10.196Z,1417.00
2024-01-16T04:53:10.205Z,1416.00
2024-01-16T04:54:10.208Z,1416.00
2024-01-16T04:55:10.228Z,1415.00
2024-01-16T04:56:10.293Z,1416.00
2024-01-16T04:57:10.263Z,1416.00
2024-01-16T04:58:10.252Z,1411.00
2024-01-16T04:59:10.321Z,1408.00
2024-01-16T05:00:10.296Z,1412.00
2024-01-16T05:01:10.357Z,1416.00
2024-01-16T05:02:10.388Z,1415.00
2024-01-16T05:03:10.333Z,1414.00
2024-01-16T05:04:10.458Z,1414.00
2024-01-16T05:05:10.461Z,1411.00
2024-01-16T05:06:10.442Z,1416.00
2024-01-16T05:07:10.378Z,1417.00
2024-01-16T05:08:10.517Z,1415.00
2024-01-16T05:09:10.385Z,1416.00
2024-01-16T05:10:10.401Z,1413.00
2024-01-16T05:11:10.414Z,1413.00
2024-01-16T05:12:10.409Z,1410.00
2024-01-16T05:13:10.406Z,1408.00
2024-01-16T05:14:10.436Z,1408.00
2024-01-16T05:15:10.432Z,1405.00
2024-01-16T05:16:10.439Z,1404.00
2024-01-16T05:17:10.471Z,1403.00
2024-01-16T05:18:10.652Z,1401.00
2024-01-16T05:19:10.541Z,1402.00
2024-01-16T05:20:10.521Z,1402.00
2024-01-16T05:21:10.570Z,1404.00
2024-01-16T05:22:10.511Z,1400.00
2024-01-16T05:23:10.574Z,1400.00
2024-01-16T05:24:10.570Z,1398.00
2024-01-16T05:25:10.592Z,1398.00
2024-01-16T05:26:10.629Z,1399.00
2024-01-16T05:27:10.661Z,1400.00
2024-01-16T05:28:10.685Z,1398.00
2024-01-16T05:29:10.755Z,1398.00
2024-01-16T05:30:10.798Z,1395.00
2024-01-16T05:31:10.889Z,1395.00
2024-01-16T05:32:10.842Z,1397.00
2024-01-16T05:33:10.971Z,1400.00
2024-01-16T05:34:11.038Z,1399.00
2024-01-16T05:35:11.040Z,1400.00
2024-01-16T05:36:10.892Z,1398.00
2024-01-16T05:37:10.907Z,1396.00
2024-01-16T05:38:10.959Z,1393.00
2024-01-16T05:39:10.963Z,1384.00
2024-01-16T05:40:10.980Z,1383.00
2024-01-16T05:41:11.024Z,1381.00
2024-01-16T05:42:11.024Z,1378.00
2024-01-16T05:43:11.077Z,1375.00
2024-01-16T05:44:11.113Z,1373.00
2024-01-16T05:45:11.131Z,1376.00
2024-01-16T05:46:11.146Z,1379.00
2024-01-16T05:47:11.229Z,1380.00
2024-01-16T05:48:11.300Z,1381.00
2024-01-16T05:49:11.327Z,1383.00
2024-01-16T05:50:11.363Z,1383.00
2024-01-16T05:51:11.346Z,1383.00
2024-01-16T05:52:11.309Z,1382.00
2024-01-16T05:53:11.390Z,1381.00
2024-01-16T05:54:11.385Z,1381.00
2024-01-16T05:55:11.408Z,1377.00
2024-01-16T05:56:11.451Z,1379.00
2024-01-16T05:57:11.469Z,1380.00
2024-01-16T05:58:14.962Z,1379.00
2024-01-16T05:59:11.539Z,1375.00
2024-01-16T06:00:11.519Z,1374.00
2024-01-16T06:01:11.542Z,1374.00
2024-01-16T06:02:11.547Z,1371.00
2024-01-16T06:03:11.576Z,1369.00
2024-01-16T06:04:14.417Z,1370.00
2024-01-16T06:05:11.654Z,1370.00
2024-01-16T06:06:11.710Z,1370.00
2024-01-16T06:07:11.584Z,1368.00
2024-01-16T06:08:11.663Z,1365.00
2024-01-16T06:09:11.605Z,1366.00
2024-01-16T06:10:11.623Z,1369.00
2024-01-16T06:11:14.383Z,1367.00
2024-01-16T06:12:11.648Z,1369.00
2024-01-16T06:13:11.663Z,1367.00
2024-01-16T06:14:11.707Z,1367.00
2024-01-16T06:15:11.690Z,1368.00
2024-01-16T06:16:11.714Z,1368.00
2024-01-16T06:17:11.738Z,1367.00
2024-01-16T06:18:11.907Z,1362.00
2024-01-16T06:19:11.815Z,1364.00
2024-01-16T06:20:11.805Z,1365.00
2024-01-16T06:21:11.768Z,1363.00
2024-01-16T06:22:11.789Z,1362.00
2024-01-16T06:23:11.836Z,1359.00
2024-01-16T06:24:11.831Z,1358.00
2024-01-16T06:25:11.839Z,1359.00
2024-01-16T06:26:11.869Z,1358.00
2024-01-16T06:27:11.865Z,1360.00
2024-01-16T06:28:11.868Z,1370.00
2024-01-16T06:29:21.418Z,1380.00
2024-01-16T06:30:13.038Z,1388.00
2024-01-16T06:31:11.943Z,1392.00
2024-01-16T06:32:11.944Z,1396.00
2024-01-16T06:33:11.986Z,1401.00
2024-01-16T06:34:12.048Z,1402.00
2024-01-16T06:35:11.977Z,1401.00
2024-01-16T06:36:11.974Z,1404.00
2024-01-16T06:37:11.990Z,1403.00
2024-01-16T06:38:12.054Z,1401.00
2024-01-16T06:39:12.019Z,1401.00
2024-01-16T06:40:12.032Z,1397.00
2024-01-16T06:41:12.069Z,1401.00
2024-01-16T06:42:12.074Z,1401.00
2024-01-16T06:43:12.084Z,1400.00
2024-01-16T06:44:12.112Z,1397.00
2024-01-16T06:45:12.110Z,1398.00
2024-01-16T06:46:12.113Z,1397.00
2024-01-16T06:47:12.156Z,1397.00
2024-01-16T06:48:12.389Z,1396.00
2024-01-16T06:49:12.258Z,1398.00
2024-01-16T06:50:12.218Z,1397.00
2024-01-16T06:51:12.188Z,1401.00
2024-01-16T06:52:12.204Z,1400.00
2024-01-16T06:53:13.740Z,1394.00
2024-01-16T06:54:12.335Z,1392.00
2024-01-16T06:55:12.361Z,1391.00
2024-01-16T06:56:12.411Z,1392.00
2024-01-16T06:57:12.421Z,1389.00
2024-01-16T06:58:12.437Z,1390.00
2024-01-16T06:59:12.552Z,1388.00
2024-01-16T07:00:12.497Z,1387.00
2024-01-16T07:01:12.633Z,1386.00
2024-01-16T07:02:12.577Z,1386.00
2024-01-16T07:03:12.561Z,1387.00
2024-01-16T07:04:13.180Z,1386.00
2024-01-16T07:05:12.711Z,1382.00
2024-01-16T07:06:12.717Z,1382.00
2024-01-16T07:07:13.628Z,1381.00
2024-01-16T07:08:12.713Z,1381.00
2024-01-16T07:09:12.705Z,1381.00
2024-01-16T07:10:12.732Z,1378.00
2024-01-16T07:11:12.852Z,1372.00
2024-01-16T07:12:12.789Z,1369.00
2024-01-16T07:13:12.824Z,1368.00
2024-01-16T07:14:12.911Z,1367.00
2024-01-16T07:15:12.853Z,1369.00
2024-01-16T07:16:12.946Z,1372.00
2024-01-16T07:17:12.978Z,1371.00
2024-01-16T07:18:13.119Z,1373.00
2024-01-16T07:19:13.197Z,1374.00
2024-01-16T07:20:13.067Z,1373.00
2024-01-16T07:21:13.041Z,1372.00
2024-01-16T07:22:13.062Z,1372.00
2024-01-16T07:23:13.106Z,1371.00
2024-01-16T07:24:13.119Z,1370.00
2024-01-16T07:25:13.146Z,1369.00
2024-01-16T07:26:13.219Z,1376.00
2024-01-16T07:27:13.208Z,1385.00
2024-01-16T07:28:13.226Z,1388.00
2024-01-16T07:29:13.333Z,1157.00
2024-01-16T07:30:13.528Z,972.00
2024-01-16T07:31:13.410Z,801.00
2024-01-16T07:32:14.142Z,749.00
2024-01-16T07:33:13.688Z,923.00
2024-01-16T07:34:13.754Z,1174.00
2024-01-16T07:35:13.762Z,1053.00
2024-01-16T07:36:13.774Z,1066.00
2024-01-16T07:37:13.812Z,1077.00
2024-01-16T07:38:16.660Z,1097.00
2024-01-16T07:39:13.921Z,1115.00
2024-01-16T07:40:14.637Z,1130.00
2024-01-16T07:41:14.007Z,1148.00
2024-01-16T07:42:13.984Z,1156.00
2024-01-16T07:43:14.009Z,1168.00
2024-01-16T07:44:14.653Z,1181.00
2024-01-16T07:45:14.076Z,1195.00
2024-01-16T07:46:14.056Z,1203.00
2024-01-16T07:47:14.114Z,1211.00
2024-01-16T07:48:14.154Z,1211.00
2024-01-16T07:49:14.143Z,1216.00
2024-01-16T07:50:14.178Z,1235.00
2024-01-16T07:51:14.151Z,1245.00
2024-01-16T07:52:14.167Z,1257.00
2024-01-16T07:53:14.184Z,1267.00
2024-01-16T07:54:14.210Z,1279.00
2024-01-16T07:55:14.196Z,1295.00
2024-01-16T07:56:14.242Z,1305.00
2024-01-16T07:57:14.228Z,1316.00
2024-01-16T07:58:14.229Z,1330.00
2024-01-16T07:59:14.238Z,1364.00
2024-01-16T08:00:15.132Z,1383.00
2024-01-16T08:01:14.395Z,1404.00
2024-01-16T08:02:14.352Z,1419.00
2024-01-16T08:03:14.437Z,1433.00
2024-01-16T08:04:14.536Z,1444.00
2024-01-16T08:05:14.621Z,1458.00
2024-01-16T08:06:14.736Z,1469.00
2024-01-16T08:07:14.683Z,1485.00
2024-01-16T08:08:15.586Z,1498.00
2024-01-16T08:09:14.864Z,1511.00
2024-01-16T08:10:17.170Z,1518.00
2024-01-16T08:11:14.915Z,1537.00
2024-01-16T08:12:14.891Z,1549.00
2024-01-16T08:13:14.906Z,1561.00
2024-01-16T08:14:14.956Z,1573.00
2024-01-16T08:15:14.935Z,1588.00
2024-01-16T08:16:14.984Z,1598.00
2024-01-16T08:17:14.989Z,1611.00
2024-01-16T08:18:15.155Z,1610.00
2024-01-16T08:19:15.075Z,1610.00
2024-01-16T08:20:15.017Z,1603.00
2024-01-16T08:21:15.005Z,1599.00
2024-01-16T08:22:15.009Z,1598.00
2024-01-16T08:23:15.134Z,1595.00
2024-01-16T08:24:15.053Z,1595.00
2024-01-16T08:25:15.593Z,1604.00
2024-01-16T08:26:15.090Z,1606.00
2024-01-16T08:27:15.109Z,1604.00
2024-01-16T08:28:15.125Z,1600.00
2024-01-16T08:29:15.149Z,1601.00
2024-01-16T08:30:15.257Z,1602.00
2024-01-16T08:31:15.134Z,1607.00
2024-01-16T08:32:15.234Z,1600.00
2024-01-16T08:33:16.845Z,1600.00
2024-01-16T08:34:15.325Z,1598.00
2024-01-16T08:35:15.351Z,1594.00
2024-01-16T08:36:15.258Z,1592.00
2024-01-16T08:37:16.231Z,1592.00
2024-01-16T08:38:15.295Z,1589.00
2024-01-16T08:39:15.257Z,1583.00
2024-01-16T08:40:15.259Z,1581.00
2024-01-16T08:41:15.296Z,1582.00
2024-01-16T08:42:16.176Z,1583.00
2024-01-16T08:43:15.284Z,1581.00
2024-01-16T08:44:15.323Z,1584.00
2024-01-16T08:45:15.308Z,1578.00
2024-01-16T08:46:15.319Z,1579.00
2024-01-16T08:47:15.385Z,1583.00
2024-01-16T08:48:15.502Z,1578.00
2024-01-16T08:49:18.797Z,1578.00
2024-01-16T08:50:16.505Z,1577.00
2024-01-16T08:51:16.316Z,1576.00
2024-01-16T08:52:15.452Z,1575.00
2024-01-16T08:53:15.515Z,1572.00
2024-01-16T08:54:15.498Z,1573.00
2024-01-16T08:55:15.500Z,1572.00
2024-01-16T08:56:15.519Z,1570.00
2024-01-16T08:57:17.849Z,1568.00
2024-01-16T08:58:15.542Z,1572.00
2024-01-16T08:59:15.557Z,1568.00
2024-01-16T09:00:15.555Z,1568.00
2024-01-16T09:01:15.604Z,1567.00
2024-01-16T09:02:15.614Z,1566.00
2024-01-16T09:03:15.602Z,1566.00
2024-01-16T09:04:15.618Z,1568.00
2024-01-16T09:05:15.686Z,1565.00
2024-01-16T09:06:15.749Z,1562.00
2024-01-16T09:07:15.804Z,1562.00
2024-01-16T09:08:15.740Z,1563.00
2024-01-16T09:09:15.693Z,1566.00
2024-01-16T09:10:15.710Z,1565.00
2024-01-16T09:11:15.747Z,1562.00
2024-01-16T09:12:15.759Z,1563.00
2024-01-16T09:13:15.784Z,1563.00
2024-01-16T09:14:15.816Z,1559.00
2024-01-16T09:15:15.800Z,1556.00
2024-01-16T09:16:16.653Z,1557.00
2024-01-16T09:17:15.857Z,1563.00
2024-01-16T09:18:16.001Z,1580.00
2024-01-16T09:19:15.923Z,1629.00
2024-01-16T09:20:17.080Z,1682.00
2024-01-16T09:21:15.875Z,1736.00
2024-01-16T09:22:15.887Z,1756.00
2024-01-16T09:23:15.896Z,1780.00
2024-01-16T09:24:15.913Z,1834.00
2024-01-16T09:25:15.910Z,1863.00
2024-01-16T09:26:17.719Z,1896.00
2024-01-16T09:27:15.931Z,1921.00
2024-01-16T09:28:15.973Z,1945.00
2024-01-16T09:29:16.019Z,1970.00
2024-01-16T09:30:15.985Z,2002.00
2024-01-16T09:31:16.624Z,2051.00
2024-01-16T09:32:16.012Z,2077.00
2024-01-16T09:33:16.077Z,2089.00
2024-01-16T09:34:16.026Z,2111.00
2024-01-16T09:35:16.057Z,2157.00
2024-01-16T09:36:16.014Z,2184.00
2024-01-16T09:37:16.014Z,2205.00
2024-01-16T09:38:16.053Z,2221.00
2024-01-16T09:39:19.026Z,2236.00
2024-01-16T09:40:16.044Z,2252.00
2024-01-16T09:41:16.095Z,2271.00
2024-01-16T09:42:16.084Z,2296.00
2024-01-16T09:43:16.070Z,2317.00
2024-01-16T09:44:16.104Z,2335.00
2024-01-16T09:45:16.065Z,2356.00
2024-01-16T09:46:16.083Z,2372.00
2024-01-16T09:47:16.088Z,2392.00
2024-01-16T09:48:16.145Z,2415.00
2024-01-16T09:49:16.175Z,2442.00
2024-01-16T09:50:16.153Z,2462.00
2024-01-16T09:51:16.085Z,2485.00
2024-01-16T09:52:16.095Z,2505.00
2024-01-16T09:53:16.109Z,2534.00
2024-01-16T09:54:16.096Z,2579.00
2024-01-16T09:55:16.071Z,2589.00
2024-01-16T09:56:16.149Z,2609.00
2024-01-16T09:57:16.084Z,2622.00
2024-01-16T09:58:16.070Z,2639.00
2024-01-16T09:59:16.159Z,2660.00
2024-01-16T10:00:17.716Z,2681.00
2024-01-16T10:01:16.103Z,2700.00
2024-01-16T10:02:16.100Z,2727.00
2024-01-16T10:03:16.061Z,2750.00
2024-01-16T10:04:16.097Z,2773.00
2024-01-16T10:05:16.161Z,2791.00
2024-01-16T10:06:16.078Z,2815.00
2024-01-16T10:07:16.617Z,2836.00
2024-01-16T10:08:16.075Z,2845.00
2024-01-16T10:09:16.068Z,2861.00
2024-01-16T10:10:21.753Z,2880.00
2024-01-16T10:11:17.636Z,2917.00
2024-01-16T10:12:16.025Z,2940.00
2024-01-16T10:13:16.020Z,2956.00
2024-01-16T10:14:16.040Z,2971.00
2024-01-16T10:15:16.009Z,2986.00
2024-01-16T10:16:16.034Z,3003.00
2024-01-16T10:17:17.330Z,3029.00
2024-01-16T10:18:16.360Z,3083.00
2024-01-16T10:19:16.012Z,3088.00
2024-01-16T10:20:16.066Z,3091.00
2024-01-16T10:21:15.986Z,3104.00
2024-01-16T10:22:16.621Z,3118.00
2024-01-16T10:23:16.000Z,3152.00
2024-01-16T10:24:15.972Z,3160.00
2024-01-16T10:25:16.710Z,3184.00
2024-01-16T10:26:16.006Z,3189.00
2024-01-16T10:27:16.617Z,2608.00
2024-01-16T10:28:15.971Z,3166.00
2024-01-16T10:29:17.154Z,3191.00
2024-01-16T10:30:16.085Z,3179.00
2024-01-16T10:31:16.102Z,3149.00
2024-01-16T10:32:16.078Z,3085.00
2024-01-16T10:33:16.312Z,3056.00
2024-01-16T10:34:16.991Z,3038.00
2024-01-16T10:35:16.704Z,3028.00
2024-01-16T10:36:16.127Z,3034.00
2024-01-16T10:37:16.146Z,3034.00
2024-01-16T10:38:16.199Z,3047.00
2024-01-16T10:39:16.186Z,3065.00
2024-01-16T10:40:16.226Z,3080.00
2024-01-16T10:41:16.310Z,3096.00
2024-01-16T10:42:16.272Z,3117.00
2024-01-16T10:43:16.272Z,3137.00
2024-01-16T10:44:16.332Z,3155.00
2024-01-16T10:45:16.298Z,3164.00
2024-01-16T10:46:17.151Z,3170.00
2024-01-16T10:47:18.248Z,3198.00
2024-01-16T10:48:16.568Z,3213.00
2024-01-16T10:49:16.317Z,3226.00
2024-01-16T10:50:16.398Z,3237.00
2024-01-16T10:51:16.618Z,3251.00
2024-01-16T10:52:16.348Z,3286.00
2024-01-16T10:53:16.402Z,3306.00
2024-01-16T10:54:16.365Z,3325.00
2024-01-16T10:55:16.366Z,3338.00
2024-01-16T10:56:16.422Z,3352.00
2024-01-16T10:57:16.408Z,3368.00
2024-01-16T10:58:16.402Z,3393.00
2024-01-16T10:59:23.255Z,3409.00
2024-01-16T11:00:16.414Z,3423.00
2024-01-16T11:01:16.511Z,3452.00
2024-01-16T11:02:16.404Z,3484.00
2024-01-16T11:03:16.353Z,3506.00
2024-01-16T11:04:16.476Z,3534.00
2024-01-16T11:05:16.460Z,3548.00
2024-01-16T11:06:16.578Z,3559.00
2024-01-16T11:07:16.317Z,3569.00
2024-01-16T11:08:16.344Z,3579.00
2024-01-16T11:09:16.295Z,3598.00
2024-01-16T11:10:16.290Z,3619.00
2024-01-16T11:11:16.373Z,3638.00
2024-01-16T11:12:16.263Z,3646.00
2024-01-16T11:13:16.255Z,3645.00
2024-01-16T11:14:16.303Z,3650.00
2024-01-16T11:15:17.267Z,3648.00
2024-01-16T11:16:16.231Z,3635.00
2024-01-16T11:17:16.279Z,3620.00
2024-01-16T11:18:16.337Z,3608.00
2024-01-16T11:19:31.399Z,3610.00
2024-01-16T11:20:30.128Z,3607.00
2024-01-16T11:21:18.204Z,3605.00
2024-01-16T11:22:16.295Z,3601.00
2024-01-16T11:23:16.197Z,3603.00
2024-01-16T11:24:16.163Z,3602.00
2024-01-16T11:25:16.219Z,3601.00
2024-01-16T11:26:16.308Z,3592.00
2024-01-16T11:27:16.113Z,3581.00
2024-01-16T11:28:16.112Z,3578.00
2024-01-16T11:29:16.131Z,3572.00
2024-01-16T11:30:16.132Z,3575.00
2024-01-16T11:31:16.102Z,3573.00
2024-01-16T11:32:27.460Z,3573.00
2024-01-16T11:33:17.316Z,3575.00
2024-01-16T11:34:17.046Z,3572.00
2024-01-16T11:35:16.296Z,3571.00
2024-01-16T11:36:16.218Z,3573.00
2024-01-16T11:37:16.233Z,3572.00
2024-01-16T11:38:17.274Z,3571.00
2024-01-16T11:39:16.372Z,3565.00
2024-01-16T11:40:16.343Z,3560.00
2024-01-16T11:41:17.118Z,3554.00
2024-01-16T11:42:16.537Z,3550.00
2024-01-16T11:43:16.382Z,3544.00
2024-01-16T11:44:17.578Z,3539.00
2024-01-16T11:45:16.390Z,3539.00
2024-01-16T11:46:16.396Z,3532.00
2024-01-16T11:47:16.467Z,3531.00
2024-01-16T11:48:17.015Z,3527.00
2024-01-16T11:49:16.416Z,3519.00
2024-01-16T11:50:16.451Z,3512.00
2024-01-16T11:51:16.372Z,3508.00
2024-01-16T11:52:16.373Z,3505.00
2024-01-16T11:53:17.218Z,3503.00
2024-01-16T11:54:16.357Z,3503.00
2024-01-16T11:55:16.380Z,3496.00
2024-01-16T11:56:16.434Z,3495.00
2024-01-16T11:57:16.386Z,3492.00
2024-01-16T11:58:17.146Z,3489.00
2024-01-16T11:59:16.454Z,3489.00
2024-01-16T12:00:16.370Z,3482.00
2024-01-16T12:01:16.395Z,3479.00
2024-01-16T12:02:16.436Z,3477.00
2024-01-16T12:03:28.279Z,3474.00
2024-01-16T12:04:17.413Z,3468.00
2024-01-16T12:05:16.526Z,3464.00
2024-01-16T12:06:16.476Z,3441.00